sensor_id;sensor_type;location;lat;lon;timestamp;P1;durP1;ratioP1;P2;durP2;ratioP2
27794;SDS011;15176;50.844;4.412;2022-09-09T00:01:43;1.77;;;0.60;;
27794;SDS011;15176;50.844;4.412;2022-09-09T00:04:14;3.28;;;0.85;;
27794;SDS011;15176;50.844;4.412;2022-09-09T00:09:46;3.65;;;0.70;;
27794;SDS011;15176;50.844;4.412;2022-09-09T00:15:24;2.67;;;1.00;;
27794;SDS011;15176;50.844;4.412;2022-09-09T00:17:58;2.53;;;0.70;;
27794;SDS011;15176;50.844;4.412;2022-09-09T00:26:02;2.47;;;0.80;;
27794;SDS011;15176;50.844;4.412;2022-09-09T00:31:20;2.40;;;0.45;;
27794;SDS011;15176;50.844;4.412;2022-09-09T00:33:55;4.53;;;0.68;;
27794;SDS011;15176;50.844;4.412;2022-09-09T00:36:26;3.10;;;0.70;;
27794;SDS011;15176;50.844;4.412;2022-09-09T00:38:55;4.88;;;0.77;;
27794;SDS011;15176;50.844;4.412;2022-09-09T00:57:46;2.55;;;0.73;;
27794;SDS011;15176;50.844;4.412;2022-09-09T01:03:05;1.02;;;0.40;;
27794;SDS011;15176;50.844;4.412;2022-09-09T01:05:46;3.35;;;0.70;;
27794;SDS011;15176;50.844;4.412;2022-09-09T01:08:28;6.68;;;1.10;;
27794;SDS011;15176;50.844;4.412;2022-09-09T01:11:07;2.65;;;0.70;;
27794;SDS011;15176;50.844;4.412;2022-09-09T01:13:41;3.28;;;0.70;;
27794;SDS011;15176;50.844;4.412;2022-09-09T01:16:08;2.50;;;0.73;;
27794;SDS011;15176;50.844;4.412;2022-09-09T01:18:40;8.63;;;1.10;;
27794;SDS011;15176;50.844;4.412;2022-09-09T01:26:45;6.32;;;0.82;;
27794;SDS011;15176;50.844;4.412;2022-09-09T01:29:12;4.10;;;0.80;;
27794;SDS011;15176;50.844;4.412;2022-09-09T01:34:20;4.50;;;0.90;;
27794;SDS011;15176;50.844;4.412;2022-09-09T01:39:18;4.00;;;0.80;;
27794;SDS011;15176;50.844;4.412;2022-09-09T01:41:44;4.05;;;0.98;;
27794;SDS011;15176;50.844;4.412;2022-09-09T01:44:10;5.95;;;0.90;;
27794;SDS011;15176;50.844;4.412;2022-09-09T01:46:36;5.90;;;0.90;;
27794;SDS011;15176;50.844;4.412;2022-09-09T01:49:02;5.05;;;1.00;;
27794;SDS011;15176;50.844;4.412;2022-09-09T01:51:30;3.78;;;0.90;;
27794;SDS011;15176;50.844;4.412;2022-09-09T01:53:56;5.00;;;0.73;;
27794;SDS011;15176;50.844;4.412;2022-09-09T02:04:36;8.90;;;1.20;;
27794;SDS011;15176;50.844;4.412;2022-09-09T02:07:02;5.82;;;1.15;;
27794;SDS011;15176;50.844;4.412;2022-09-09T02:09:34;8.57;;;1.33;;
27794;SDS011;15176;50.844;4.412;2022-09-09T02:12:07;3.25;;;0.82;;
27794;SDS011;15176;50.844;4.412;2022-09-09T02:14:38;5.30;;;1.63;;
27794;SDS011;15176;50.844;4.412;2022-09-09T02:17:08;7.00;;;1.05;;
27794;SDS011;15176;50.844;4.412;2022-09-09T02:19:45;4.63;;;1.15;;
27794;SDS011;15176;50.844;4.412;2022-09-09T02:22:19;6.82;;;1.38;;
27794;SDS011;15176;50.844;4.412;2022-09-09T02:24:48;4.85;;;1.10;;
27794;SDS011;15176;50.844;4.412;2022-09-09T02:27:15;7.20;;;1.30;;
27794;SDS011;15176;50.844;4.412;2022-09-09T02:29:43;4.38;;;1.20;;
27794;SDS011;15176;50.844;4.412;2022-09-09T02:32:14;7.95;;;1.40;;
27794;SDS011;15176;50.844;4.412;2022-09-09T02:34:43;5.70;;;1.10;;
27794;SDS011;15176;50.844;4.412;2022-09-09T02:37:12;7.03;;;1.45;;
27794;SDS011;15176;50.844;4.412;2022-09-09T02:39:42;7.45;;;1.10;;
27794;SDS011;15176;50.844;4.412;2022-09-09T02:42:08;6.32;;;1.33;;
27794;SDS011;15176;50.844;4.412;2022-09-09T02:44:34;4.53;;;1.10;;
27794;SDS011;15176;50.844;4.412;2022-09-09T02:52:15;7.80;;;1.23;;
27794;SDS011;15176;50.844;4.412;2022-09-09T02:54:45;5.30;;;1.08;;
27794;SDS011;15176;50.844;4.412;2022-09-09T02:59:51;6.70;;;1.20;;
27794;SDS011;15176;50.844;4.412;2022-09-09T03:02:20;8.40;;;1.33;;
27794;SDS011;15176;50.844;4.412;2022-09-09T03:04:45;5.50;;;1.10;;
27794;SDS011;15176;50.844;4.412;2022-09-09T03:07:15;6.97;;;1.42;;
27794;SDS011;15176;50.844;4.412;2022-09-09T03:09:42;9.90;;;1.20;;
27794;SDS011;15176;50.844;4.412;2022-09-09T03:12:07;10.38;;;1.35;;
27794;SDS011;15176;50.844;4.412;2022-09-09T03:14:33;6.82;;;1.23;;
27794;SDS011;15176;50.844;4.412;2022-09-09T03:16:59;10.90;;;1.40;;
27794;SDS011;15176;50.844;4.412;2022-09-09T03:19:26;3.90;;;1.00;;
27794;SDS011;15176;50.844;4.412;2022-09-09T03:21:52;7.90;;;1.33;;
27794;SDS011;15176;50.844;4.412;2022-09-09T03:24:18;8.88;;;1.60;;
27794;SDS011;15176;50.844;4.412;2022-09-09T03:26:44;6.03;;;1.30;;
27794;SDS011;15176;50.844;4.412;2022-09-09T03:29:10;6.22;;;1.35;;
27794;SDS011;15176;50.844;4.412;2022-09-09T03:31:40;9.77;;;1.88;;
27794;SDS011;15176;50.844;4.412;2022-09-09T03:34:06;8.85;;;1.60;;
27794;SDS011;15176;50.844;4.412;2022-09-09T03:36:32;7.25;;;1.17;;
27794;SDS011;15176;50.844;4.412;2022-09-09T03:38:57;6.95;;;1.63;;
27794;SDS011;15176;50.844;4.412;2022-09-09T03:41:24;8.57;;;1.80;;
27794;SDS011;15176;50.844;4.412;2022-09-09T03:43:53;5.75;;;1.23;;
27794;SDS011;15176;50.844;4.412;2022-09-09T03:46:19;7.47;;;1.55;;
27794;SDS011;15176;50.844;4.412;2022-09-09T03:48:45;7.65;;;1.27;;
27794;SDS011;15176;50.844;4.412;2022-09-09T03:51:11;7.45;;;1.15;;
27794;SDS011;15176;50.844;4.412;2022-09-09T03:53:38;6.47;;;1.48;;
27794;SDS011;15176;50.844;4.412;2022-09-09T03:56:05;9.00;;;1.50;;
27794;SDS011;15176;50.844;4.412;2022-09-09T03:58:32;5.65;;;1.30;;
27794;SDS011;15176;50.844;4.412;2022-09-09T04:01:00;8.98;;;1.67;;
27794;SDS011;15176;50.844;4.412;2022-09-09T04:03:34;8.90;;;1.38;;
27794;SDS011;15176;50.844;4.412;2022-09-09T04:06:01;7.68;;;1.48;;
27794;SDS011;15176;50.844;4.412;2022-09-09T04:08:28;5.63;;;1.40;;
27794;SDS011;15176;50.844;4.412;2022-09-09T04:10:56;13.30;;;1.70;;
27794;SDS011;15176;50.844;4.412;2022-09-09T04:13:23;9.80;;;1.75;;
27794;SDS011;15176;50.844;4.412;2022-09-09T04:15:53;6.03;;;1.60;;
27794;SDS011;15176;50.844;4.412;2022-09-09T04:18:21;6.38;;;1.38;;
27794;SDS011;15176;50.844;4.412;2022-09-09T04:20:48;10.07;;;1.55;;
27794;SDS011;15176;50.844;4.412;2022-09-09T04:23:15;6.97;;;1.45;;
27794;SDS011;15176;50.844;4.412;2022-09-09T04:26:01;7.10;;;1.40;;
27794;SDS011;15176;50.844;4.412;2022-09-09T04:28:29;7.05;;;1.30;;
27794;SDS011;15176;50.844;4.412;2022-09-09T04:30:56;7.00;;;1.48;;
27794;SDS011;15176;50.844;4.412;2022-09-09T04:33:24;8.82;;;1.17;;
27794;SDS011;15176;50.844;4.412;2022-09-09T04:35:53;12.57;;;2.05;;
27794;SDS011;15176;50.844;4.412;2022-09-09T04:38:19;4.88;;;0.82;;
27794;SDS011;15176;50.844;4.412;2022-09-09T04:40:49;7.85;;;1.63;;
27794;SDS011;15176;50.844;4.412;2022-09-09T04:43:16;8.70;;;1.33;;
27794;SDS011;15176;50.844;4.412;2022-09-09T04:45:44;9.63;;;1.88;;
27794;SDS011;15176;50.844;4.412;2022-09-09T04:48:13;11.10;;;1.50;;
27794;SDS011;15176;50.844;4.412;2022-09-09T04:50:39;8.60;;;1.42;;
27794;SDS011;15176;50.844;4.412;2022-09-09T04:53:05;5.95;;;1.55;;
27794;SDS011;15176;50.844;4.412;2022-09-09T04:55:32;12.00;;;1.83;;
27794;SDS011;15176;50.844;4.412;2022-09-09T04:58:06;7.35;;;1.50;;
27794;SDS011;15176;50.844;4.412;2022-09-09T05:00:33;12.40;;;2.20;;
27794;SDS011;15176;50.844;4.412;2022-09-09T05:03:03;10.68;;;1.98;;
27794;SDS011;15176;50.844;4.412;2022-09-09T05:05:30;8.50;;;1.85;;
27794;SDS011;15176;50.844;4.412;2022-09-09T05:08:02;9.10;;;1.80;;
27794;SDS011;15176;50.844;4.412;2022-09-09T05:10:33;7.45;;;1.65;;
27794;SDS011;15176;50.844;4.412;2022-09-09T05:13:01;8.90;;;1.92;;
27794;SDS011;15176;50.844;4.412;2022-09-09T05:15:27;7.20;;;1.85;;
27794;SDS011;15176;50.844;4.412;2022-09-09T05:17:52;10.07;;;2.03;;
27794;SDS011;15176;50.844;4.412;2022-09-09T05:20:22;6.53;;;1.40;;
27794;SDS011;15176;50.844;4.412;2022-09-09T05:22:52;16.02;;;2.10;;
27794;SDS011;15176;50.844;4.412;2022-09-09T05:25:18;7.90;;;1.65;;
27794;SDS011;15176;50.844;4.412;2022-09-09T05:27:44;14.85;;;2.42;;
27794;SDS011;15176;50.844;4.412;2022-09-09T05:30:10;8.23;;;1.88;;
27794;SDS011;15176;50.844;4.412;2022-09-09T05:32:36;15.43;;;2.08;;
27794;SDS011;15176;50.844;4.412;2022-09-09T05:35:02;10.25;;;2.20;;
27794;SDS011;15176;50.844;4.412;2022-09-09T05:37:28;8.95;;;1.80;;
27794;SDS011;15176;50.844;4.412;2022-09-09T05:39:55;7.20;;;1.65;;
27794;SDS011;15176;50.844;4.412;2022-09-09T05:42:20;9.40;;;2.10;;
27794;SDS011;15176;50.844;4.412;2022-09-09T05:44:46;12.05;;;2.63;;
27794;SDS011;15176;50.844;4.412;2022-09-09T05:47:11;9.10;;;1.75;;
27794;SDS011;15176;50.844;4.412;2022-09-09T05:49:37;5.63;;;1.65;;
27794;SDS011;15176;50.844;4.412;2022-09-09T05:52:03;11.25;;;1.98;;
27794;SDS011;15176;50.844;4.412;2022-09-09T05:54:29;10.10;;;2.15;;
27794;SDS011;15176;50.844;4.412;2022-09-09T05:56:54;14.38;;;2.22;;
27794;SDS011;15176;50.844;4.412;2022-09-09T05:59:20;7.43;;;2.08;;
27794;SDS011;15176;50.844;4.412;2022-09-09T06:01:48;6.50;;;1.58;;
27794;SDS011;15176;50.844;4.412;2022-09-09T06:04:13;8.10;;;1.80;;
27794;SDS011;15176;50.844;4.412;2022-09-09T06:06:40;9.10;;;1.83;;
27794;SDS011;15176;50.844;4.412;2022-09-09T06:09:07;9.20;;;1.92;;
27794;SDS011;15176;50.844;4.412;2022-09-09T06:11:35;11.65;;;2.20;;
27794;SDS011;15176;50.844;4.412;2022-09-09T06:14:04;9.38;;;1.55;;
27794;SDS011;15176;50.844;4.412;2022-09-09T06:16:31;9.43;;;1.70;;
27794;SDS011;15176;50.844;4.412;2022-09-09T06:19:00;5.78;;;1.60;;
27794;SDS011;15176;50.844;4.412;2022-09-09T06:21:29;13.77;;;2.67;;
27794;SDS011;15176;50.844;4.412;2022-09-09T06:23:57;10.23;;;2.17;;
27794;SDS011;15176;50.844;4.412;2022-09-09T06:26:24;9.90;;;1.73;;
27794;SDS011;15176;50.844;4.412;2022-09-09T06:28:55;9.38;;;2.03;;
27794;SDS011;15176;50.844;4.412;2022-09-09T06:31:23;9.00;;;2.20;;
27794;SDS011;15176;50.844;4.412;2022-09-09T06:33:51;15.20;;;2.40;;
27794;SDS011;15176;50.844;4.412;2022-09-09T06:36:22;8.88;;;1.42;;
27794;SDS011;15176;50.844;4.412;2022-09-09T06:38:48;9.65;;;1.90;;
27794;SDS011;15176;50.844;4.412;2022-09-09T06:41:15;7.85;;;1.80;;
27794;SDS011;15176;50.844;4.412;2022-09-09T06:43:43;11.60;;;2.15;;
27794;SDS011;15176;50.844;4.412;2022-09-09T06:46:13;13.77;;;1.92;;
27794;SDS011;15176;50.844;4.412;2022-09-09T06:48:40;11.50;;;1.83;;
27794;SDS011;15176;50.844;4.412;2022-09-09T06:53:36;9.02;;;1.80;;
27794;SDS011;15176;50.844;4.412;2022-09-09T06:58:42;12.13;;;3.63;;
27794;SDS011;15176;50.844;4.412;2022-09-09T07:01:12;13.35;;;2.42;;
27794;SDS011;15176;50.844;4.412;2022-09-09T07:03:40;7.22;;;1.92;;
27794;SDS011;15176;50.844;4.412;2022-09-09T07:06:07;7.32;;;1.80;;
27794;SDS011;15176;50.844;4.412;2022-09-09T07:08:38;8.63;;;1.92;;
27794;SDS011;15176;50.844;4.412;2022-09-09T07:11:05;11.70;;;2.10;;
27794;SDS011;15176;50.844;4.412;2022-09-09T07:13:32;9.43;;;2.10;;
27794;SDS011;15176;50.844;4.412;2022-09-09T07:16:05;10.02;;;1.80;;
27794;SDS011;15176;50.844;4.412;2022-09-09T07:18:33;10.23;;;1.70;;
27794;SDS011;15176;50.844;4.412;2022-09-09T07:20:59;7.15;;;1.50;;
27794;SDS011;15176;50.844;4.412;2022-09-09T07:23:27;5.57;;;1.27;;
27794;SDS011;15176;50.844;4.412;2022-09-09T07:25:52;9.32;;;2.10;;
27794;SDS011;15176;50.844;4.412;2022-09-09T07:28:19;11.85;;;1.77;;
27794;SDS011;15176;50.844;4.412;2022-09-09T07:33:23;9.20;;;1.95;;
27794;SDS011;15176;50.844;4.412;2022-09-09T07:35:49;10.20;;;2.03;;
27794;SDS011;15176;50.844;4.412;2022-09-09T07:38:15;9.85;;;2.10;;
27794;SDS011;15176;50.844;4.412;2022-09-09T07:40:41;9.73;;;2.00;;
27794;SDS011;15176;50.844;4.412;2022-09-09T07:43:07;10.30;;;1.73;;
27794;SDS011;15176;50.844;4.412;2022-09-09T07:45:34;12.52;;;2.28;;
27794;SDS011;15176;50.844;4.412;2022-09-09T07:48:00;8.43;;;1.55;;
27794;SDS011;15176;50.844;4.412;2022-09-09T07:50:26;8.27;;;1.58;;
27794;SDS011;15176;50.844;4.412;2022-09-09T07:52:52;10.35;;;1.80;;
27794;SDS011;15176;50.844;4.412;2022-09-09T07:55:21;7.68;;;1.67;;
27794;SDS011;15176;50.844;4.412;2022-09-09T07:57:52;8.43;;;1.70;;
27794;SDS011;15176;50.844;4.412;2022-09-09T08:00:18;11.25;;;2.22;;
27794;SDS011;15176;50.844;4.412;2022-09-09T08:02:44;7.13;;;1.60;;
27794;SDS011;15176;50.844;4.412;2022-09-09T08:05:11;10.48;;;2.03;;
27794;SDS011;15176;50.844;4.412;2022-09-09T08:07:37;11.38;;;1.85;;
27794;SDS011;15176;50.844;4.412;2022-09-09T08:10:03;9.23;;;2.17;;
27794;SDS011;15176;50.844;4.412;2022-09-09T08:12:29;8.55;;;2.17;;
27794;SDS011;15176;50.844;4.412;2022-09-09T08:14:55;11.30;;;2.08;;
27794;SDS011;15176;50.844;4.412;2022-09-09T08:17:21;9.13;;;1.88;;
27794;SDS011;15176;50.844;4.412;2022-09-09T08:19:46;6.13;;;1.70;;
27794;SDS011;15176;50.844;4.412;2022-09-09T08:22:12;9.50;;;2.20;;
27794;SDS011;15176;50.844;4.412;2022-09-09T08:24:38;7.43;;;2.30;;
27794;SDS011;15176;50.844;4.412;2022-09-09T08:27:04;8.93;;;1.75;;
27794;SDS011;15176;50.844;4.412;2022-09-09T08:29:30;11.93;;;1.98;;
27794;SDS011;15176;50.844;4.412;2022-09-09T08:31:56;6.25;;;1.70;;
27794;SDS011;15176;50.844;4.412;2022-09-09T08:34:23;11.88;;;1.90;;
27794;SDS011;15176;50.844;4.412;2022-09-09T08:36:51;10.43;;;2.05;;
27794;SDS011;15176;50.844;4.412;2022-09-09T08:39:18;7.82;;;1.70;;
27794;SDS011;15176;50.844;4.412;2022-09-09T08:54:55;8.02;;;2.05;;
27794;SDS011;15176;50.844;4.412;2022-09-09T08:57:28;10.65;;;1.85;;
27794;SDS011;15176;50.844;4.412;2022-09-09T08:59:56;9.80;;;1.90;;
27794;SDS011;15176;50.844;4.412;2022-09-09T09:10:45;9.32;;;2.08;;
27794;SDS011;15176;50.844;4.412;2022-09-09T09:13:20;8.13;;;1.70;;
27794;SDS011;15176;50.844;4.412;2022-09-09T09:15:54;7.50;;;1.80;;
27794;SDS011;15176;50.844;4.412;2022-09-09T09:18:23;12.20;;;2.28;;
27794;SDS011;15176;50.844;4.412;2022-09-09T09:23:21;6.97;;;2.10;;
27794;SDS011;15176;50.844;4.412;2022-09-09T09:25:48;12.48;;;2.40;;
27794;SDS011;15176;50.844;4.412;2022-09-09T09:28:17;13.10;;;2.15;;
27794;SDS011;15176;50.844;4.412;2022-09-09T09:30:55;7.93;;;1.80;;
27794;SDS011;15176;50.844;4.412;2022-09-09T09:36:09;10.95;;;2.20;;
27794;SDS011;15176;50.844;4.412;2022-09-09T09:44:01;6.88;;;1.73;;
27794;SDS011;15176;50.844;4.412;2022-09-09T09:46:29;11.77;;;2.05;;
27794;SDS011;15176;50.844;4.412;2022-09-09T09:48:58;8.57;;;1.50;;
27794;SDS011;15176;50.844;4.412;2022-09-09T09:51:29;6.82;;;1.95;;
27794;SDS011;15176;50.844;4.412;2022-09-09T09:56:46;9.68;;;2.05;;
27794;SDS011;15176;50.844;4.412;2022-09-09T10:01:53;8.70;;;2.17;;
27794;SDS011;15176;50.844;4.412;2022-09-09T10:04:20;7.90;;;1.65;;
27794;SDS011;15176;50.844;4.412;2022-09-09T10:06:48;19.33;;;2.33;;
27794;SDS011;15176;50.844;4.412;2022-09-09T10:22:44;10.35;;;4.28;;
27794;SDS011;15176;50.844;4.412;2022-09-09T10:30:19;7.55;;;2.35;;
27794;SDS011;15176;50.844;4.412;2022-09-09T10:41:19;8.55;;;1.90;;
27794;SDS011;15176;50.844;4.412;2022-09-09T10:59:50;9.32;;;1.90;;
27794;SDS011;15176;50.844;4.412;2022-09-09T11:02:24;10.65;;;2.17;;
27794;SDS011;15176;50.844;4.412;2022-09-09T11:10:06;8.77;;;1.85;;
27794;SDS011;15176;50.844;4.412;2022-09-09T11:12:43;6.72;;;1.73;;
27794;SDS011;15176;50.844;4.412;2022-09-09T11:15:18;8.35;;;1.73;;
27794;SDS011;15176;50.844;4.412;2022-09-09T11:17:51;10.13;;;1.90;;
27794;SDS011;15176;50.844;4.412;2022-09-09T11:20:21;6.80;;;1.65;;
27794;SDS011;15176;50.844;4.412;2022-09-09T11:25:34;7.15;;;1.50;;
27794;SDS011;15176;50.844;4.412;2022-09-09T11:33:16;8.35;;;1.55;;
27794;SDS011;15176;50.844;4.412;2022-09-09T11:35:59;8.07;;;1.85;;
27794;SDS011;15176;50.844;4.412;2022-09-09T11:38:44;9.50;;;1.88;;
27794;SDS011;15176;50.844;4.412;2022-09-09T11:41:16;4.90;;;1.50;;
27794;SDS011;15176;50.844;4.412;2022-09-09T11:43:43;7.32;;;1.70;;
27794;SDS011;15176;50.844;4.412;2022-09-09T11:46:20;8.82;;;1.65;;
27794;SDS011;15176;50.844;4.412;2022-09-09T11:51:29;8.95;;;1.67;;
27794;SDS011;15176;50.844;4.412;2022-09-09T11:54:01;6.85;;;1.70;;
27794;SDS011;15176;50.844;4.412;2022-09-09T11:56:47;6.25;;;1.50;;
27794;SDS011;15176;50.844;4.412;2022-09-09T11:59:20;7.47;;;1.52;;
27794;SDS011;15176;50.844;4.412;2022-09-09T12:04:29;6.88;;;1.63;;
27794;SDS011;15176;50.844;4.412;2022-09-09T12:06:58;5.43;;;1.38;;
27794;SDS011;15176;50.844;4.412;2022-09-09T12:12:24;7.88;;;1.75;;
27794;SDS011;15176;50.844;4.412;2022-09-09T12:17:41;6.00;;;1.63;;
27794;SDS011;15176;50.844;4.412;2022-09-09T12:26:03;9.25;;;1.70;;
27794;SDS011;15176;50.844;4.412;2022-09-09T12:28:39;8.55;;;1.45;;
27794;SDS011;15176;50.844;4.412;2022-09-09T12:34:02;6.70;;;1.67;;
27794;SDS011;15176;50.844;4.412;2022-09-09T12:36:57;7.45;;;1.60;;
27794;SDS011;15176;50.844;4.412;2022-09-09T12:39:42;4.85;;;1.50;;
27794;SDS011;15176;50.844;4.412;2022-09-09T12:42:20;5.22;;;1.50;;
27794;SDS011;15176;50.844;4.412;2022-09-09T12:44:55;8.70;;;1.40;;
27794;SDS011;15176;50.844;4.412;2022-09-09T12:47:22;6.28;;;1.52;;
27794;SDS011;15176;50.844;4.412;2022-09-09T12:49:54;8.60;;;1.30;;
27794;SDS011;15176;50.844;4.412;2022-09-09T12:52:26;7.90;;;1.50;;
27794;SDS011;15176;50.844;4.412;2022-09-09T12:54:55;3.72;;;1.33;;
27794;SDS011;15176;50.844;4.412;2022-09-09T12:57:23;5.25;;;1.30;;
27794;SDS011;15176;50.844;4.412;2022-09-09T12:59:51;7.47;;;1.50;;
27794;SDS011;15176;50.844;4.412;2022-09-09T13:02:19;3.83;;;1.00;;
27794;SDS011;15176;50.844;4.412;2022-09-09T13:04:50;6.78;;;1.30;;
27794;SDS011;15176;50.844;4.412;2022-09-09T13:07:17;4.63;;;1.60;;
27794;SDS011;15176;50.844;4.412;2022-09-09T13:09:44;7.82;;;1.27;;
27794;SDS011;15176;50.844;4.412;2022-09-09T13:12:13;6.72;;;1.35;;
27794;SDS011;15176;50.844;4.412;2022-09-09T13:14:52;6.45;;;1.60;;
27794;SDS011;15176;50.844;4.412;2022-09-09T13:17:22;6.20;;;1.55;;
27794;SDS011;15176;50.844;4.412;2022-09-09T13:19:50;5.28;;;1.63;;
27794;SDS011;15176;50.844;4.412;2022-09-09T13:27:36;6.72;;;1.52;;
27794;SDS011;15176;50.844;4.412;2022-09-09T13:38:20;5.28;;;1.45;;
27794;SDS011;15176;50.844;4.412;2022-09-09T13:43:27;4.13;;;1.25;;
27794;SDS011;15176;50.844;4.412;2022-09-09T13:45:55;4.07;;;1.02;;
27794;SDS011;15176;50.844;4.412;2022-09-09T13:48:23;4.68;;;1.30;;
27794;SDS011;15176;50.844;4.412;2022-09-09T13:53:27;4.07;;;1.00;;
27794;SDS011;15176;50.844;4.412;2022-09-09T13:55:53;4.63;;;1.25;;
27794;SDS011;15176;50.844;4.412;2022-09-09T13:58:19;6.32;;;1.75;;
27794;SDS011;15176;50.844;4.412;2022-09-09T14:00:46;4.45;;;1.17;;
27794;SDS011;15176;50.844;4.412;2022-09-09T14:03:12;5.85;;;1.25;;
27794;SDS011;15176;50.844;4.412;2022-09-09T14:05:38;5.50;;;1.13;;
27794;SDS011;15176;50.844;4.412;2022-09-09T14:08:04;7.43;;;1.38;;
27794;SDS011;15176;50.844;4.412;2022-09-09T14:10:31;4.60;;;1.02;;
27794;SDS011;15176;50.844;4.412;2022-09-09T14:12:57;5.32;;;1.17;;
27794;SDS011;15176;50.844;4.412;2022-09-09T14:15:23;3.47;;;1.08;;
27794;SDS011;15176;50.844;4.412;2022-09-09T14:17:49;3.38;;;1.05;;
27794;SDS011;15176;50.844;4.412;2022-09-09T14:20:14;4.78;;;1.20;;
27794;SDS011;15176;50.844;4.412;2022-09-09T14:22:42;4.47;;;1.20;;
27794;SDS011;15176;50.844;4.412;2022-09-09T14:25:09;7.72;;;1.55;;
27794;SDS011;15176;50.844;4.412;2022-09-09T14:27:34;5.80;;;1.50;;
27794;SDS011;15176;50.844;4.412;2022-09-09T14:30:00;4.82;;;1.38;;
27794;SDS011;15176;50.844;4.412;2022-09-09T14:32:26;5.82;;;1.60;;
27794;SDS011;15176;50.844;4.412;2022-09-09T14:34:54;5.63;;;1.70;;
27794;SDS011;15176;50.844;4.412;2022-09-09T14:37:19;5.93;;;1.60;;
27794;SDS011;15176;50.844;4.412;2022-09-09T14:39:45;5.72;;;1.45;;
27794;SDS011;15176;50.844;4.412;2022-09-09T14:42:12;5.72;;;1.38;;
27794;SDS011;15176;50.844;4.412;2022-09-09T14:44:38;6.13;;;1.70;;
27794;SDS011;15176;50.844;4.412;2022-09-09T14:47:05;5.78;;;1.60;;
27794;SDS011;15176;50.844;4.412;2022-09-09T14:49:32;7.53;;;1.27;;
27794;SDS011;15176;50.844;4.412;2022-09-09T14:52:02;3.42;;;1.15;;
27794;SDS011;15176;50.844;4.412;2022-09-09T14:54:28;5.70;;;1.30;;
27794;SDS011;15176;50.844;4.412;2022-09-09T14:56:54;8.25;;;2.72;;
27794;SDS011;15176;50.844;4.412;2022-09-09T14:59:19;10.07;;;2.50;;
27794;SDS011;15176;50.844;4.412;2022-09-09T15:01:45;5.60;;;1.30;;
27794;SDS011;15176;50.844;4.412;2022-09-09T15:04:11;7.60;;;1.70;;
27794;SDS011;15176;50.844;4.412;2022-09-09T15:06:39;5.35;;;1.50;;
27794;SDS011;15176;50.844;4.412;2022-09-09T15:09:07;5.47;;;1.35;;
27794;SDS011;15176;50.844;4.412;2022-09-09T15:11:35;9.57;;;1.50;;
27794;SDS011;15176;50.844;4.412;2022-09-09T15:14:02;6.65;;;1.30;;
27794;SDS011;15176;50.844;4.412;2022-09-09T15:16:29;7.88;;;1.25;;
27794;SDS011;15176;50.844;4.412;2022-09-09T15:18:55;6.47;;;1.38;;
27794;SDS011;15176;50.844;4.412;2022-09-09T15:21:23;5.07;;;1.25;;
27794;SDS011;15176;50.844;4.412;2022-09-09T15:23:50;6.43;;;1.17;;
27794;SDS011;15176;50.844;4.412;2022-09-09T15:26:16;5.35;;;1.40;;
27794;SDS011;15176;50.844;4.412;2022-09-09T15:28:43;10.38;;;1.55;;
27794;SDS011;15176;50.844;4.412;2022-09-09T15:31:11;6.03;;;1.10;;
27794;SDS011;15176;50.844;4.412;2022-09-09T15:33:46;4.43;;;1.40;;
27794;SDS011;15176;50.844;4.412;2022-09-09T15:36:22;24.65;;;2.70;;
27794;SDS011;15176;50.844;4.412;2022-09-09T15:38:49;5.97;;;1.20;;
27794;SDS011;15176;50.844;4.412;2022-09-09T15:41:16;6.18;;;1.23;;
27794;SDS011;15176;50.844;4.412;2022-09-09T15:43:43;6.55;;;1.23;;
27794;SDS011;15176;50.844;4.412;2022-09-09T15:48:42;5.68;;;1.45;;
27794;SDS011;15176;50.844;4.412;2022-09-09T15:51:09;4.88;;;1.10;;
27794;SDS011;15176;50.844;4.412;2022-09-09T15:53:35;5.45;;;1.58;;
27794;SDS011;15176;50.844;4.412;2022-09-09T15:56:02;5.72;;;1.33;;
27794;SDS011;15176;50.844;4.412;2022-09-09T15:58:29;5.75;;;1.30;;
27794;SDS011;15176;50.844;4.412;2022-09-09T16:01:01;7.80;;;1.30;;
27794;SDS011;15176;50.844;4.412;2022-09-09T16:03:35;6.30;;;1.52;;
27794;SDS011;15176;50.844;4.412;2022-09-09T16:06:02;4.78;;;1.80;;
27794;SDS011;15176;50.844;4.412;2022-09-09T16:08:37;6.00;;;1.48;;
27794;SDS011;15176;50.844;4.412;2022-09-09T16:11:08;4.22;;;1.25;;
27794;SDS011;15176;50.844;4.412;2022-09-09T16:13:36;5.30;;;1.63;;
27794;SDS011;15176;50.844;4.412;2022-09-09T16:16:03;7.90;;;1.65;;
27794;SDS011;15176;50.844;4.412;2022-09-09T16:21:00;7.13;;;1.73;;
27794;SDS011;15176;50.844;4.412;2022-09-09T16:23:26;6.00;;;1.70;;
27794;SDS011;15176;50.844;4.412;2022-09-09T16:25:53;5.72;;;1.80;;
27794;SDS011;15176;50.844;4.412;2022-09-09T16:28:19;4.68;;;1.60;;
27794;SDS011;15176;50.844;4.412;2022-09-09T16:30:45;4.95;;;2.65;;
27794;SDS011;15176;50.844;4.412;2022-09-09T16:33:10;5.90;;;1.55;;
27794;SDS011;15176;50.844;4.412;2022-09-09T16:35:36;5.57;;;1.45;;
27794;SDS011;15176;50.844;4.412;2022-09-09T16:38:03;3.53;;;1.38;;
27794;SDS011;15176;50.844;4.412;2022-09-09T16:40:29;5.70;;;1.38;;
27794;SDS011;15176;50.844;4.412;2022-09-09T16:42:55;8.70;;;1.50;;
27794;SDS011;15176;50.844;4.412;2022-09-09T16:45:21;4.00;;;1.60;;
27794;SDS011;15176;50.844;4.412;2022-09-09T16:47:47;6.30;;;1.65;;
27794;SDS011;15176;50.844;4.412;2022-09-09T16:50:13;7.82;;;1.80;;
27794;SDS011;15176;50.844;4.412;2022-09-09T16:52:39;3.80;;;1.60;;
27794;SDS011;15176;50.844;4.412;2022-09-09T16:55:05;4.47;;;1.60;;
27794;SDS011;15176;50.844;4.412;2022-09-09T16:57:31;4.95;;;1.50;;
27794;SDS011;15176;50.844;4.412;2022-09-09T16:59:56;5.10;;;1.70;;
27794;SDS011;15176;50.844;4.412;2022-09-09T17:02:24;6.32;;;1.70;;
27794;SDS011;15176;50.844;4.412;2022-09-09T17:04:50;7.32;;;1.75;;
27794;SDS011;15176;50.844;4.412;2022-09-09T17:07:15;6.22;;;1.70;;
27794;SDS011;15176;50.844;4.412;2022-09-09T17:09:43;6.43;;;1.60;;
27794;SDS011;15176;50.844;4.412;2022-09-09T17:12:10;6.07;;;1.40;;
27794;SDS011;15176;50.844;4.412;2022-09-09T17:14:37;6.50;;;1.40;;
27794;SDS011;15176;50.844;4.412;2022-09-09T17:17:03;5.50;;;1.40;;
27794;SDS011;15176;50.844;4.412;2022-09-09T17:19:29;6.53;;;1.65;;
27794;SDS011;15176;50.844;4.412;2022-09-09T17:21:55;9.60;;;1.92;;
27794;SDS011;15176;50.844;4.412;2022-09-09T17:24:25;4.78;;;1.30;;
27794;SDS011;15176;50.844;4.412;2022-09-09T17:26:51;6.60;;;1.80;;
27794;SDS011;15176;50.844;4.412;2022-09-09T17:29:18;4.40;;;1.23;;
27794;SDS011;15176;50.844;4.412;2022-09-09T17:31:44;8.60;;;1.63;;
27794;SDS011;15176;50.844;4.412;2022-09-09T17:34:09;6.57;;;2.08;;
27794;SDS011;15176;50.844;4.412;2022-09-09T17:36:35;8.70;;;1.77;;
27794;SDS011;15176;50.844;4.412;2022-09-09T17:39:02;5.90;;;1.63;;
27794;SDS011;15176;50.844;4.412;2022-09-09T17:41:30;7.63;;;2.28;;
27794;SDS011;15176;50.844;4.412;2022-09-09T17:43:58;7.97;;;1.75;;
27794;SDS011;15176;50.844;4.412;2022-09-09T17:46:28;6.95;;;2.13;;
27794;SDS011;15176;50.844;4.412;2022-09-09T17:48:58;9.82;;;2.53;;
27794;SDS011;15176;50.844;4.412;2022-09-09T17:51:26;7.13;;;1.85;;
27794;SDS011;15176;50.844;4.412;2022-09-09T17:53:55;10.07;;;2.28;;
27794;SDS011;15176;50.844;4.412;2022-09-09T17:56:23;8.52;;;2.05;;
27794;SDS011;15176;50.844;4.412;2022-09-09T17:58:51;7.95;;;2.10;;
27794;SDS011;15176;50.844;4.412;2022-09-09T18:01:22;12.32;;;2.00;;
27794;SDS011;15176;50.844;4.412;2022-09-09T18:03:49;9.35;;;2.25;;
27794;SDS011;15176;50.844;4.412;2022-09-09T18:08:55;6.38;;;1.83;;
27794;SDS011;15176;50.844;4.412;2022-09-09T18:11:25;10.15;;;2.10;;
27794;SDS011;15176;50.844;4.412;2022-09-09T18:13:53;9.07;;;2.17;;
27794;SDS011;15176;50.844;4.412;2022-09-09T18:16:21;5.82;;;1.92;;
27794;SDS011;15176;50.844;4.412;2022-09-09T18:18:48;6.82;;;1.98;;
27794;SDS011;15176;50.844;4.412;2022-09-09T18:21:15;12.32;;;3.20;;